sensor_id;sensor_type;location;lat;lon;timestamp;P1;durP1;ratioP1;P2;durP2;ratioP2
27313;SDS011;14800;48.174;9.798;2024-03-25T00:00:16;3.55;;;1.48;;
27313;SDS011;14800;48.174;9.798;2024-03-25T00:02:43;3.97;;;1.70;;
27313;SDS011;14800;48.174;9.798;2024-03-25T00:05:08;5.00;;;1.67;;
27313;SDS011;14800;48.174;9.798;2024-03-25T00:07:35;3.97;;;1.77;;
27313;SDS011;14800;48.174;9.798;2024-03-25T00:10:01;2.58;;;1.50;;
27313;SDS011;14800;48.174;9.798;2024-03-25T00:12:26;3.22;;;1.60;;
27313;SDS011;14800;48.174;9.798;2024-03-25T00:14:52;3.47;;;1.60;;
27313;SDS011;14800;48.174;9.798;2024-03-25T00:17:18;2.95;;;1.52;;
27313;SDS011;14800;48.174;9.798;2024-03-25T00:19:45;2.80;;;1.40;;
27313;SDS011;14800;48.174;9.798;2024-03-25T00:22:16;4.38;;;1.80;;
27313;SDS011;14800;48.174;9.798;2024-03-25T00:24:42;5.90;;;1.70;;
27313;SDS011;14800;48.174;9.798;2024-03-25T00:27:08;2.35;;;1.58;;
27313;SDS011;14800;48.174;9.798;2024-03-25T00:29:33;3.75;;;1.60;;
27313;SDS011;14800;48.174;9.798;2024-03-25T00:31:59;3.10;;;1.48;;
27313;SDS011;14800;48.174;9.798;2024-03-25T00:34:24;3.03;;;1.67;;
27313;SDS011;14800;48.174;9.798;2024-03-25T00:36:50;4.18;;;1.42;;
27313;SDS011;14800;48.174;9.798;2024-03-25T00:39:16;2.75;;;1.33;;
27313;SDS011;14800;48.174;9.798;2024-03-25T00:41:42;2.95;;;1.50;;
27313;SDS011;14800;48.174;9.798;2024-03-25T00:44:07;1.33;;;1.20;;
27313;SDS011;14800;48.174;9.798;2024-03-25T00:46:33;3.17;;;1.40;;
27313;SDS011;14800;48.174;9.798;2024-03-25T00:48:58;5.38;;;1.60;;
27313;SDS011;14800;48.174;9.798;2024-03-25T00:51:24;3.47;;;1.80;;
27313;SDS011;14800;48.174;9.798;2024-03-25T00:53:49;1.88;;;1.17;;
27313;SDS011;14800;48.174;9.798;2024-03-25T00:56:15;3.53;;;1.42;;
27313;SDS011;14800;48.174;9.798;2024-03-25T00:58:41;2.40;;;1.38;;
27313;SDS011;14800;48.174;9.798;2024-03-25T01:01:06;4.00;;;1.42;;
27313;SDS011;14800;48.174;9.798;2024-03-25T01:03:32;4.03;;;1.40;;
27313;SDS011;14800;48.174;9.798;2024-03-25T01:05:58;3.38;;;1.55;;
27313;SDS011;14800;48.174;9.798;2024-03-25T01:08:24;1.98;;;1.42;;
27313;SDS011;14800;48.174;9.798;2024-03-25T01:10:50;2.17;;;1.42;;
27313;SDS011;14800;48.174;9.798;2024-03-25T01:13:15;2.97;;;1.50;;
27313;SDS011;14800;48.174;9.798;2024-03-25T01:15:41;2.25;;;1.50;;
27313;SDS011;14800;48.174;9.798;2024-03-25T01:18:07;1.50;;;1.27;;
27313;SDS011;14800;48.174;9.798;2024-03-25T01:20:33;3.22;;;1.25;;
27313;SDS011;14800;48.174;9.798;2024-03-25T01:22:58;3.13;;;1.60;;
27313;SDS011;14800;48.174;9.798;2024-03-25T01:25:24;2.72;;;1.30;;
27313;SDS011;14800;48.174;9.798;2024-03-25T01:27:50;3.17;;;1.52;;
27313;SDS011;14800;48.174;9.798;2024-03-25T01:30:16;5.22;;;1.42;;
27313;SDS011;14800;48.174;9.798;2024-03-25T01:32:43;2.60;;;1.30;;
27313;SDS011;14800;48.174;9.798;2024-03-25T01:35:11;2.53;;;1.40;;
27313;SDS011;14800;48.174;9.798;2024-03-25T01:37:37;3.60;;;1.45;;
27313;SDS011;14800;48.174;9.798;2024-03-25T01:40:03;1.98;;;1.30;;
27313;SDS011;14800;48.174;9.798;2024-03-25T01:42:29;1.90;;;1.17;;
27313;SDS011;14800;48.174;9.798;2024-03-25T01:44:55;4.03;;;1.40;;
27313;SDS011;14800;48.174;9.798;2024-03-25T01:47:20;6.13;;;1.48;;
27313;SDS011;14800;48.174;9.798;2024-03-25T01:49:47;4.20;;;1.40;;
27313;SDS011;14800;48.174;9.798;2024-03-25T01:52:14;3.10;;;1.50;;
27313;SDS011;14800;48.174;9.798;2024-03-25T01:54:40;3.00;;;1.30;;
27313;SDS011;14800;48.174;9.798;2024-03-25T01:57:06;3.47;;;1.50;;
27313;SDS011;14800;48.174;9.798;2024-03-25T01:59:32;3.30;;;1.40;;
27313;SDS011;14800;48.174;9.798;2024-03-25T02:01:58;3.30;;;1.48;;
27313;SDS011;14800;48.174;9.798;2024-03-25T02:04:25;1.70;;;1.35;;
27313;SDS011;14800;48.174;9.798;2024-03-25T02:06:51;3.05;;;1.50;;
27313;SDS011;14800;48.174;9.798;2024-03-25T02:09:16;3.72;;;1.58;;
27313;SDS011;14800;48.174;9.798;2024-03-25T02:11:43;2.33;;;1.38;;
27313;SDS011;14800;48.174;9.798;2024-03-25T02:14:09;3.65;;;1.33;;
27313;SDS011;14800;48.174;9.798;2024-03-25T02:16:34;2.55;;;1.30;;
27313;SDS011;14800;48.174;9.798;2024-03-25T02:19:00;2.97;;;1.67;;
27313;SDS011;14800;48.174;9.798;2024-03-25T02:21:26;4.00;;;1.70;;
27313;SDS011;14800;48.174;9.798;2024-03-25T02:23:51;1.75;;;1.50;;
27313;SDS011;14800;48.174;9.798;2024-03-25T02:26:21;1.98;;;1.15;;
27313;SDS011;14800;48.174;9.798;2024-03-25T02:28:48;1.80;;;1.30;;
27313;SDS011;14800;48.174;9.798;2024-03-25T02:31:14;2.80;;;1.40;;
27313;SDS011;14800;48.174;9.798;2024-03-25T02:33:39;2.42;;;1.38;;
27313;SDS011;14800;48.174;9.798;2024-03-25T02:36:07;1.98;;;1.23;;
27313;SDS011;14800;48.174;9.798;2024-03-25T02:38:33;2.30;;;1.25;;
27313;SDS011;14800;48.174;9.798;2024-03-25T02:40:59;2.28;;;1.38;;
27313;SDS011;14800;48.174;9.798;2024-03-25T02:43:25;1.55;;;1.30;;
27313;SDS011;14800;48.174;9.798;2024-03-25T02:45:51;2.30;;;1.35;;
27313;SDS011;14800;48.174;9.798;2024-03-25T02:48:17;2.20;;;1.35;;
27313;SDS011;14800;48.174;9.798;2024-03-25T02:50:42;2.63;;;1.35;;
27313;SDS011;14800;48.174;9.798;2024-03-25T02:53:08;5.50;;;1.50;;
27313;SDS011;14800;48.174;9.798;2024-03-25T02:55:33;2.33;;;1.40;;
27313;SDS011;14800;48.174;9.798;2024-03-25T02:57:59;1.30;;;1.17;;
27313;SDS011;14800;48.174;9.798;2024-03-25T03:00:24;2.08;;;1.33;;
27313;SDS011;14800;48.174;9.798;2024-03-25T03:02:50;2.00;;;1.52;;
27313;SDS011;14800;48.174;9.798;2024-03-25T03:05:16;3.92;;;1.48;;
27313;SDS011;14800;48.174;9.798;2024-03-25T03:07:41;1.92;;;1.48;;
27313;SDS011;14800;48.174;9.798;2024-03-25T03:10:07;2.35;;;1.30;;
27313;SDS011;14800;48.174;9.798;2024-03-25T03:12:32;4.72;;;2.00;;
27313;SDS011;14800;48.174;9.798;2024-03-25T03:14:58;3.38;;;1.70;;
27313;SDS011;14800;48.174;9.798;2024-03-25T03:17:24;2.42;;;1.52;;
27313;SDS011;14800;48.174;9.798;2024-03-25T03:19:49;2.17;;;1.33;;
27313;SDS011;14800;48.174;9.798;2024-03-25T03:22:15;3.60;;;1.77;;
27313;SDS011;14800;48.174;9.798;2024-03-25T03:24:40;1.73;;;1.55;;
27313;SDS011;14800;48.174;9.798;2024-03-25T03:27:06;3.10;;;1.75;;
27313;SDS011;14800;48.174;9.798;2024-03-25T03:29:31;2.65;;;1.65;;
27313;SDS011;14800;48.174;9.798;2024-03-25T03:31:57;4.45;;;2.10;;
27313;SDS011;14800;48.174;9.798;2024-03-25T03:34:22;2.33;;;1.90;;
27313;SDS011;14800;48.174;9.798;2024-03-25T03:36:48;3.53;;;2.15;;
27313;SDS011;14800;48.174;9.798;2024-03-25T03:39:14;1.70;;;1.60;;
27313;SDS011;14800;48.174;9.798;2024-03-25T03:41:40;4.20;;;1.80;;
27313;SDS011;14800;48.174;9.798;2024-03-25T03:44:06;4.75;;;1.70;;
27313;SDS011;14800;48.174;9.798;2024-03-25T03:46:31;1.70;;;1.40;;
27313;SDS011;14800;48.174;9.798;2024-03-25T03:48:57;3.05;;;1.40;;
27313;SDS011;14800;48.174;9.798;2024-03-25T03:51:22;3.35;;;1.65;;
27313;SDS011;14800;48.174;9.798;2024-03-25T03:53:48;1.92;;;1.60;;
27313;SDS011;14800;48.174;9.798;2024-03-25T03:56:14;2.65;;;1.88;;
27313;SDS011;14800;48.174;9.798;2024-03-25T03:58:39;2.40;;;1.52;;
27313;SDS011;14800;48.174;9.798;2024-03-25T04:01:05;2.95;;;1.70;;
27313;SDS011;14800;48.174;9.798;2024-03-25T04:06:08;4.03;;;1.70;;
27313;SDS011;14800;48.174;9.798;2024-03-25T04:08:35;2.47;;;1.60;;
27313;SDS011;14800;48.174;9.798;2024-03-25T04:11:02;2.25;;;1.85;;
27313;SDS011;14800;48.174;9.798;2024-03-25T04:13:28;3.58;;;1.70;;
27313;SDS011;14800;48.174;9.798;2024-03-25T04:15:53;3.70;;;1.92;;
27313;SDS011;14800;48.174;9.798;2024-03-25T04:18:19;2.40;;;1.80;;
27313;SDS011;14800;48.174;9.798;2024-03-25T04:20:44;2.42;;;1.83;;
27313;SDS011;14800;48.174;9.798;2024-03-25T04:23:10;4.63;;;2.20;;
27313;SDS011;14800;48.174;9.798;2024-03-25T04:25:35;3.55;;;1.88;;
27313;SDS011;14800;48.174;9.798;2024-03-25T04:28:02;4.30;;;2.13;;
27313;SDS011;14800;48.174;9.798;2024-03-25T04:30:28;2.95;;;1.90;;
27313;SDS011;14800;48.174;9.798;2024-03-25T04:32:54;4.30;;;1.98;;
27313;SDS011;14800;48.174;9.798;2024-03-25T04:35:20;5.10;;;2.08;;
27313;SDS011;14800;48.174;9.798;2024-03-25T04:37:45;4.00;;;2.05;;
27313;SDS011;14800;48.174;9.798;2024-03-25T04:40:11;3.55;;;1.75;;
27313;SDS011;14800;48.174;9.798;2024-03-25T04:42:39;5.43;;;2.15;;
27313;SDS011;14800;48.174;9.798;2024-03-25T04:45:05;4.03;;;2.05;;
27313;SDS011;14800;48.174;9.798;2024-03-25T04:47:31;2.80;;;1.95;;
27313;SDS011;14800;48.174;9.798;2024-03-25T04:49:56;2.55;;;2.00;;
27313;SDS011;14800;48.174;9.798;2024-03-25T04:52:22;5.85;;;2.45;;
27313;SDS011;14800;48.174;9.798;2024-03-25T04:54:49;4.97;;;2.20;;
27313;SDS011;14800;48.174;9.798;2024-03-25T04:57:15;4.20;;;2.13;;
27313;SDS011;14800;48.174;9.798;2024-03-25T04:59:40;5.88;;;2.33;;
27313;SDS011;14800;48.174;9.798;2024-03-25T05:02:06;2.55;;;1.92;;
27313;SDS011;14800;48.174;9.798;2024-03-25T05:04:32;3.50;;;2.00;;
27313;SDS011;14800;48.174;9.798;2024-03-25T05:06:57;3.78;;;2.10;;
27313;SDS011;14800;48.174;9.798;2024-03-25T05:09:23;3.38;;;2.13;;
27313;SDS011;14800;48.174;9.798;2024-03-25T05:11:49;3.38;;;1.98;;
27313;SDS011;14800;48.174;9.798;2024-03-25T05:14:14;5.70;;;2.13;;
27313;SDS011;14800;48.174;9.798;2024-03-25T05:16:40;2.13;;;1.92;;
27313;SDS011;14800;48.174;9.798;2024-03-25T05:19:05;2.30;;;2.10;;
27313;SDS011;14800;48.174;9.798;2024-03-25T05:21:31;3.42;;;2.20;;
27313;SDS011;14800;48.174;9.798;2024-03-25T05:23:57;3.28;;;2.40;;
27313;SDS011;14800;48.174;9.798;2024-03-25T05:26:23;4.63;;;2.15;;
27313;SDS011;14800;48.174;9.798;2024-03-25T05:28:55;4.07;;;2.53;;
27313;SDS011;14800;48.174;9.798;2024-03-25T05:31:22;4.03;;;2.30;;
27313;SDS011;14800;48.174;9.798;2024-03-25T05:33:48;4.25;;;2.67;;
27313;SDS011;14800;48.174;9.798;2024-03-25T05:36:14;3.90;;;2.22;;
27313;SDS011;14800;48.174;9.798;2024-03-25T05:38:40;5.63;;;2.60;;
27313;SDS011;14800;48.174;9.798;2024-03-25T05:41:09;3.67;;;2.35;;
27313;SDS011;14800;48.174;9.798;2024-03-25T05:43:35;3.13;;;2.83;;
27313;SDS011;14800;48.174;9.798;2024-03-25T05:46:01;4.78;;;2.95;;
27313;SDS011;14800;48.174;9.798;2024-03-25T05:48:27;3.53;;;2.63;;
27313;SDS011;14800;48.174;9.798;2024-03-25T05:53:30;5.65;;;2.67;;
27313;SDS011;14800;48.174;9.798;2024-03-25T05:55:55;6.90;;;2.78;;
27313;SDS011;14800;48.174;9.798;2024-03-25T05:58:21;6.95;;;2.80;;
27313;SDS011;14800;48.174;9.798;2024-03-25T06:00:47;3.10;;;2.80;;
27313;SDS011;14800;48.174;9.798;2024-03-25T06:03:14;4.30;;;2.83;;
27313;SDS011;14800;48.174;9.798;2024-03-25T06:05:40;5.18;;;2.60;;
27313;SDS011;14800;48.174;9.798;2024-03-25T06:08:06;3.63;;;2.60;;
27313;SDS011;14800;48.174;9.798;2024-03-25T06:10:38;11.07;;;2.75;;
27313;SDS011;14800;48.174;9.798;2024-03-25T06:13:04;3.97;;;2.75;;
27313;SDS011;14800;48.174;9.798;2024-03-25T06:15:30;5.93;;;2.75;;
27313;SDS011;14800;48.174;9.798;2024-03-25T06:17:55;4.22;;;2.85;;
27313;SDS011;14800;48.174;9.798;2024-03-25T06:20:21;3.33;;;2.83;;
27313;SDS011;14800;48.174;9.798;2024-03-25T06:22:47;6.82;;;3.00;;
27313;SDS011;14800;48.174;9.798;2024-03-25T06:25:12;5.30;;;2.88;;
27313;SDS011;14800;48.174;9.798;2024-03-25T06:27:38;4.82;;;2.85;;
27313;SDS011;14800;48.174;9.798;2024-03-25T06:30:03;4.28;;;3.10;;
27313;SDS011;14800;48.174;9.798;2024-03-25T06:32:48;6.25;;;2.67;;
27313;SDS011;14800;48.174;9.798;2024-03-25T06:35:32;4.20;;;2.58;;
27313;SDS011;14800;48.174;9.798;2024-03-25T06:37:58;3.85;;;2.83;;
27313;SDS011;14800;48.174;9.798;2024-03-25T06:40:23;4.57;;;2.75;;
27313;SDS011;14800;48.174;9.798;2024-03-25T06:42:49;4.93;;;2.72;;
27313;SDS011;14800;48.174;9.798;2024-03-25T06:45:15;5.72;;;3.00;;
27313;SDS011;14800;48.174;9.798;2024-03-25T06:47:42;3.75;;;2.75;;
27313;SDS011;14800;48.174;9.798;2024-03-25T06:50:08;6.28;;;2.95;;
27313;SDS011;14800;48.174;9.798;2024-03-25T06:52:33;5.78;;;2.90;;
27313;SDS011;14800;48.174;9.798;2024-03-25T06:54:59;5.07;;;3.10;;
27313;SDS011;14800;48.174;9.798;2024-03-25T06:57:24;4.80;;;2.60;;
27313;SDS011;14800;48.174;9.798;2024-03-25T06:59:50;4.32;;;3.10;;
27313;SDS011;14800;48.174;9.798;2024-03-25T07:02:16;4.63;;;3.00;;
27313;SDS011;14800;48.174;9.798;2024-03-25T07:04:42;12.38;;;2.80;;
27313;SDS011;14800;48.174;9.798;2024-03-25T07:07:07;6.18;;;3.13;;
27313;SDS011;14800;48.174;9.798;2024-03-25T07:09:33;6.70;;;3.38;;
27313;SDS011;14800;48.174;9.798;2024-03-25T07:11:59;6.53;;;3.53;;
27313;SDS011;14800;48.174;9.798;2024-03-25T07:14:24;6.20;;;3.35;;
27313;SDS011;14800;48.174;9.798;2024-03-25T07:16:50;5.88;;;3.22;;
27313;SDS011;14800;48.174;9.798;2024-03-25T07:19:16;6.68;;;3.10;;
27313;SDS011;14800;48.174;9.798;2024-03-25T07:21:41;7.95;;;3.58;;
27313;SDS011;14800;48.174;9.798;2024-03-25T07:24:07;5.15;;;3.00;;
27313;SDS011;14800;48.174;9.798;2024-03-25T07:26:32;5.35;;;3.38;;
27313;SDS011;14800;48.174;9.798;2024-03-25T07:28:58;5.53;;;2.92;;
27313;SDS011;14800;48.174;9.798;2024-03-25T07:31:23;5.40;;;3.10;;
27313;SDS011;14800;48.174;9.798;2024-03-25T07:33:50;7.45;;;3.45;;
27313;SDS011;14800;48.174;9.798;2024-03-25T07:36:16;6.10;;;3.10;;
27313;SDS011;14800;48.174;9.798;2024-03-25T07:38:42;4.22;;;3.00;;
27313;SDS011;14800;48.174;9.798;2024-03-25T07:41:07;3.92;;;3.10;;
27313;SDS011;14800;48.174;9.798;2024-03-25T07:43:34;6.07;;;3.10;;
27313;SDS011;14800;48.174;9.798;2024-03-25T07:45:59;5.70;;;3.15;;
27313;SDS011;14800;48.174;9.798;2024-03-25T07:48:25;9.25;;;3.25;;
27313;SDS011;14800;48.174;9.798;2024-03-25T07:50:50;6.72;;;3.00;;
27313;SDS011;14800;48.174;9.798;2024-03-25T07:53:16;8.25;;;3.10;;
27313;SDS011;14800;48.174;9.798;2024-03-25T07:55:42;4.32;;;2.78;;
27313;SDS011;14800;48.174;9.798;2024-03-25T07:58:07;6.07;;;2.92;;
27313;SDS011;14800;48.174;9.798;2024-03-25T08:00:33;5.47;;;3.28;;
27313;SDS011;14800;48.174;9.798;2024-03-25T08:02:59;5.10;;;3.17;;
27313;SDS011;14800;48.174;9.798;2024-03-25T08:05:25;4.47;;;3.20;;
27313;SDS011;14800;48.174;9.798;2024-03-25T08:07:51;4.30;;;2.85;;
27313;SDS011;14800;48.174;9.798;2024-03-25T08:10:17;6.38;;;2.53;;
27313;SDS011;14800;48.174;9.798;2024-03-25T08:12:42;4.45;;;2.85;;
27313;SDS011;14800;48.174;9.798;2024-03-25T08:15:08;7.45;;;2.85;;
27313;SDS011;14800;48.174;9.798;2024-03-25T08:17:34;5.05;;;2.97;;
27313;SDS011;14800;48.174;9.798;2024-03-25T08:19:59;4.20;;;2.60;;
27313;SDS011;14800;48.174;9.798;2024-03-25T08:22:25;7.78;;;2.90;;
27313;SDS011;14800;48.174;9.798;2024-03-25T08:24:50;5.65;;;2.42;;
27313;SDS011;14800;48.174;9.798;2024-03-25T08:27:16;7.15;;;2.78;;
27313;SDS011;14800;48.174;9.798;2024-03-25T08:29:41;4.65;;;2.97;;
27313;SDS011;14800;48.174;9.798;2024-03-25T08:32:07;5.10;;;2.83;;
27313;SDS011;14800;48.174;9.798;2024-03-25T08:34:32;5.13;;;2.78;;
27313;SDS011;14800;48.174;9.798;2024-03-25T08:36:58;5.88;;;2.90;;
27313;SDS011;14800;48.174;9.798;2024-03-25T08:39:24;8.52;;;2.75;;
27313;SDS011;14800;48.174;9.798;2024-03-25T08:41:49;5.00;;;2.75;;
27313;SDS011;14800;48.174;9.798;2024-03-25T08:44:15;3.00;;;2.60;;
27313;SDS011;14800;48.174;9.798;2024-03-25T08:46:41;5.13;;;2.67;;
27313;SDS011;14800;48.174;9.798;2024-03-25T08:49:06;5.85;;;2.85;;
27313;SDS011;14800;48.174;9.798;2024-03-25T08:51:32;4.00;;;2.63;;
27313;SDS011;14800;48.174;9.798;2024-03-25T08:53:59;4.95;;;2.70;;
27313;SDS011;14800;48.174;9.798;2024-03-25T08:56:24;4.38;;;2.50;;
27313;SDS011;14800;48.174;9.798;2024-03-25T08:58:50;6.85;;;2.55;;
27313;SDS011;14800;48.174;9.798;2024-03-25T09:01:18;4.57;;;2.40;;
27313;SDS011;14800;48.174;9.798;2024-03-25T09:03:43;4.85;;;2.35;;
27313;SDS011;14800;48.174;9.798;2024-03-25T09:06:09;5.65;;;2.20;;
27313;SDS011;14800;48.174;9.798;2024-03-25T09:08:35;3.45;;;2.35;;
27313;SDS011;14800;48.174;9.798;2024-03-25T09:11:21;4.00;;;2.20;;
27313;SDS011;14800;48.174;9.798;2024-03-25T09:13:49;3.35;;;2.20;;
27313;SDS011;14800;48.174;9.798;2024-03-25T09:16:15;3.63;;;2.17;;
27313;SDS011;14800;48.174;9.798;2024-03-25T09:18:41;5.43;;;2.05;;
27313;SDS011;14800;48.174;9.798;2024-03-25T09:21:06;4.55;;;2.00;;
27313;SDS011;14800;48.174;9.798;2024-03-25T09:23:32;2.42;;;1.92;;
27313;SDS011;14800;48.174;9.798;2024-03-25T09:25:57;3.45;;;1.30;;
27313;SDS011;14800;48.174;9.798;2024-03-25T09:28:23;2.97;;;1.45;;
27313;SDS011;14800;48.174;9.798;2024-03-25T09:30:49;2.22;;;1.30;;
27313;SDS011;14800;48.174;9.798;2024-03-25T09:33:14;2.83;;;1.98;;
27313;SDS011;14800;48.174;9.798;2024-03-25T09:35:40;2.63;;;1.75;;
27313;SDS011;14800;48.174;9.798;2024-03-25T09:38:06;3.30;;;1.70;;
27313;SDS011;14800;48.174;9.798;2024-03-25T09:40:32;5.07;;;1.58;;
27313;SDS011;14800;48.174;9.798;2024-03-25T09:43:01;4.45;;;1.60;;
27313;SDS011;14800;48.174;9.798;2024-03-25T09:45:28;1.52;;;1.42;;
27313;SDS011;14800;48.174;9.798;2024-03-25T09:47:55;3.58;;;1.58;;
27313;SDS011;14800;48.174;9.798;2024-03-25T09:50:20;3.95;;;1.90;;
27313;SDS011;14800;48.174;9.798;2024-03-25T09:52:50;2.45;;;1.48;;
27313;SDS011;14800;48.174;9.798;2024-03-25T09:55:16;2.83;;;1.58;;
27313;SDS011;14800;48.174;9.798;2024-03-25T09:57:42;2.15;;;1.42;;
27313;SDS011;14800;48.174;9.798;2024-03-25T10:00:09;2.80;;;1.42;;
27313;SDS011;14800;48.174;9.798;2024-03-25T10:02:36;2.97;;;1.55;;
27313;SDS011;14800;48.174;9.798;2024-03-25T10:05:05;3.83;;;1.67;;
27313;SDS011;14800;48.174;9.798;2024-03-25T10:07:32;2.15;;;1.63;;
27313;SDS011;14800;48.174;9.798;2024-03-25T10:09:57;3.03;;;1.50;;
27313;SDS011;14800;48.174;9.798;2024-03-25T10:12:23;3.08;;;1.60;;
27313;SDS011;14800;48.174;9.798;2024-03-25T10:14:49;2.00;;;1.70;;
27313;SDS011;14800;48.174;9.798;2024-03-25T10:17:15;2.78;;;1.50;;
27313;SDS011;14800;48.174;9.798;2024-03-25T10:19:41;3.25;;;1.50;;
27313;SDS011;14800;48.174;9.798;2024-03-25T10:22:07;4.03;;;1.58;;
27313;SDS011;14800;48.174;9.798;2024-03-25T10:24:40;3.70;;;1.48;;
27313;SDS011;14800;48.174;9.798;2024-03-25T10:27:10;2.47;;;1.40;;
27313;SDS011;14800;48.174;9.798;2024-03-25T10:29:46;3.80;;;1.70;;
27313;SDS011;14800;48.174;9.798;2024-03-25T10:32:15;3.58;;;1.88;;
27313;SDS011;14800;48.174;9.798;2024-03-25T10:34:40;3.78;;;1.60;;
27313;SDS011;14800;48.174;9.798;2024-03-25T10:37:08;2.88;;;1.50;;
27313;SDS011;14800;48.174;9.798;2024-03-25T10:39:35;3.13;;;1.70;;
27313;SDS011;14800;48.174;9.798;2024-03-25T10:42:08;2.40;;;1.55;;
27313;SDS011;14800;48.174;9.798;2024-03-25T10:44:38;4.68;;;1.83;;
27313;SDS011;14800;48.174;9.798;2024-03-25T10:47:04;2.45;;;1.90;;
27313;SDS011;14800;48.174;9.798;2024-03-25T10:52:13;3.67;;;1.83;;
27313;SDS011;14800;48.174;9.798;2024-03-25T10:54:40;2.78;;;1.50;;
27313;SDS011;14800;48.174;9.798;2024-03-25T10:57:07;3.65;;;1.35;;
27313;SDS011;14800;48.174;9.798;2024-03-25T10:59:35;2.85;;;1.20;;
27313;SDS011;14800;48.174;9.798;2024-03-25T11:02:06;3.53;;;1.73;;
27313;SDS011;14800;48.174;9.798;2024-03-25T11:04:36;1.73;;;1.02;;
27313;SDS011;14800;48.174;9.798;2024-03-25T11:07:08;1.90;;;1.13;;
27313;SDS011;14800;48.174;9.798;2024-03-25T11:09:35;1.60;;;1.17;;
27313;SDS011;14800;48.174;9.798;2024-03-25T11:12:01;2.30;;;0.98;;
27313;SDS011;14800;48.174;9.798;2024-03-25T11:14:27;2.50;;;1.20;;
27313;SDS011;14800;48.174;9.798;2024-03-25T11:16:53;2.42;;;1.05;;
27313;SDS011;14800;48.174;9.798;2024-03-25T11:19:20;1.95;;;1.10;;
27313;SDS011;14800;48.174;9.798;2024-03-25T11:21:50;1.65;;;1.00;;
27313;SDS011;14800;48.174;9.798;2024-03-25T11:24:25;2.85;;;1.17;;
27313;SDS011;14800;48.174;9.798;2024-03-25T11:26:53;2.30;;;1.05;;
27313;SDS011;14800;48.174;9.798;2024-03-25T11:29:19;2.88;;;1.10;;
27313;SDS011;14800;48.174;9.798;2024-03-25T11:31:44;3.25;;;1.20;;
27313;SDS011;14800;48.174;9.798;2024-03-25T11:34:10;2.22;;;1.00;;
27313;SDS011;14800;48.174;9.798;2024-03-25T11:36:36;1.70;;;1.30;;
27313;SDS011;14800;48.174;9.798;2024-03-25T11:39:02;2.25;;;1.20;;
27313;SDS011;14800;48.174;9.798;2024-03-25T11:41:32;2.47;;;1.10;;
27313;SDS011;14800;48.174;9.798;2024-03-25T11:43:58;1.15;;;0.90;;
27313;SDS011;14800;48.174;9.798;2024-03-25T11:46:25;1.77;;;1.00;;
27313;SDS011;14800;48.174;9.798;2024-03-25T11:48:51;2.80;;;1.00;;
27313;SDS011;14800;48.174;9.798;2024-03-25T11:51:17;1.33;;;0.90;;
27313;SDS011;14800;48.174;9.798;2024-03-25T11:53:43;2.00;;;0.95;;
27313;SDS011;14800;48.174;9.798;2024-03-25T11:56:10;1.25;;;0.90;;
27313;SDS011;14800;48.174;9.798;2024-03-25T11:58:37;1.52;;;0.80;;
27313;SDS011;14800;48.174;9.798;2024-03-25T12:01:03;1.83;;;0.90;;
27313;SDS011;14800;48.174;9.798;2024-03-25T12:03:29;2.70;;;0.90;;
27313;SDS011;14800;48.174;9.798;2024-03-25T12:05:55;2.03;;;1.00;;
27313;SDS011;14800;48.174;9.798;2024-03-25T12:08:21;1.23;;;0.98;;
27313;SDS011;14800;48.174;9.798;2024-03-25T12:10:51;3.42;;;0.93;;
27313;SDS011;14800;48.174;9.798;2024-03-25T12:13:35;1.35;;;0.93;;
27313;SDS011;14800;48.174;9.798;2024-03-25T12:16:05;1.30;;;0.77;;
27313;SDS011;14800;48.174;9.798;2024-03-25T12:18:32;1.80;;;1.13;;
27313;SDS011;14800;48.174;9.798;2024-03-25T12:20:59;1.80;;;0.60;;
27313;SDS011;14800;48.174;9.798;2024-03-25T12:23:28;2.13;;;0.65;;
27313;SDS011;14800;48.174;9.798;2024-03-25T12:25:55;2.13;;;0.57;;
27313;SDS011;14800;48.174;9.798;2024-03-25T12:28:20;1.67;;;0.73;;
27313;SDS011;14800;48.174;9.798;2024-03-25T12:30:50;1.50;;;0.60;;
27313;SDS011;14800;48.174;9.798;2024-03-25T12:33:17;1.52;;;0.70;;
27313;SDS011;14800;48.174;9.798;2024-03-25T12:35:46;0.98;;;0.73;;
27313;SDS011;14800;48.174;9.798;2024-03-25T12:38:23;1.05;;;0.80;;
27313;SDS011;14800;48.174;9.798;2024-03-25T12:41:05;3.35;;;0.95;;
27313;SDS011;14800;48.174;9.798;2024-03-25T12:43:36;1.70;;;0.70;;
27313;SDS011;14800;48.174;9.798;2024-03-25T12:46:07;1.42;;;0.70;;
27313;SDS011;14800;48.174;9.798;2024-03-25T12:48:33;2.40;;;0.68;;
27313;SDS011;14800;48.174;9.798;2024-03-25T12:51:00;0.90;;;0.55;;
27313;SDS011;14800;48.174;9.798;2024-03-25T12:53:25;1.35;;;0.60;;
27313;SDS011;14800;48.174;9.798;2024-03-25T12:55:52;1.05;;;0.60;;
27313;SDS011;14800;48.174;9.798;2024-03-25T12:58:17;1.20;;;0.50;;
27313;SDS011;14800;48.174;9.798;2024-03-25T13:00:43;1.83;;;0.60;;
27313;SDS011;14800;48.174;9.798;2024-03-25T13:03:09;1.80;;;0.65;;
27313;SDS011;14800;48.174;9.798;2024-03-25T13:05:35;0.77;;;0.40;;
27313;SDS011;14800;48.174;9.798;2024-03-25T13:08:01;1.38;;;0.70;;
27313;SDS011;14800;48.174;9.798;2024-03-25T13:10:28;1.67;;;0.60;;
27313;SDS011;14800;48.174;9.798;2024-03-25T13:12:54;1.17;;;0.70;;
27313;SDS011;14800;48.174;9.798;2024-03-25T13:15:20;1.42;;;0.68;;
27313;SDS011;14800;48.174;9.798;2024-03-25T13:17:46;1.30;;;0.70;;
27313;SDS011;14800;48.174;9.798;2024-03-25T13:20:12;1.73;;;0.60;;
27313;SDS011;14800;48.174;9.798;2024-03-25T13:22:38;1.70;;;0.68;;
27313;SDS011;14800;48.174;9.798;2024-03-25T13:25:04;0.80;;;0.75;;
27313;SDS011;14800;48.174;9.798;2024-03-25T13:27:30;1.20;;;0.70;;
27313;SDS011;14800;48.174;9.798;2024-03-25T13:29:56;2.30;;;0.70;;
27313;SDS011;14800;48.174;9.798;2024-03-25T13:32:22;1.23;;;0.80;;
27313;SDS011;14800;48.174;9.798;2024-03-25T13:34:48;1.45;;;0.73;;
27313;SDS011;14800;48.174;9.798;2024-03-25T13:37:14;0.95;;;0.57;;
27313;SDS011;14800;48.174;9.798;2024-03-25T13:39:40;2.05;;;0.70;;
27313;SDS011;14800;48.174;9.798;2024-03-25T13:42:05;0.88;;;0.50;;
27313;SDS011;14800;48.174;9.798;2024-03-25T13:44:31;1.13;;;0.50;;
27313;SDS011;14800;48.174;9.798;2024-03-25T13:46:56;1.80;;;0.60;;
27313;SDS011;14800;48.174;9.798;2024-03-25T13:49:22;2.05;;;0.63;;
27313;SDS011;14800;48.174;9.798;2024-03-25T13:51:50;1.48;;;0.60;;
27313;SDS011;14800;48.174;9.798;2024-03-25T13:54:20;1.00;;;0.60;;
27313;SDS011;14800;48.174;9.798;2024-03-25T13:56:46;1.58;;;0.70;;
27313;SDS011;14800;48.174;9.798;2024-03-25T13:59:12;0.50;;;0.50;;
27313;SDS011;14800;48.174;9.798;2024-03-25T14:01:37;0.80;;;0.50;;
27313;SDS011;14800;48.174;9.798;2024-03-25T14:04:03;3.95;;;0.70;;
27313;SDS011;14800;48.174;9.798;2024-03-25T14:06:29;1.77;;;0.70;;
27313;SDS011;14800;48.174;9.798;2024-03-25T14:08:54;1.77;;;0.77;;
27313;SDS011;14800;48.174;9.798;2024-03-25T14:11:20;1.10;;;0.65;;
27313;SDS011;14800;48.174;9.798;2024-03-25T14:13:46;0.70;;;0.52;;
27313;SDS011;14800;48.174;9.798;2024-03-25T14:16:12;1.05;;;0.70;;
27313;SDS011;14800;48.174;9.798;2024-03-25T14:18:37;4.20;;;0.57;;
27313;SDS011;14800;48.174;9.798;2024-03-25T14:21:03;1.02;;;0.68;;
27313;SDS011;14800;48.174;9.798;2024-03-25T14:23:28;0.82;;;0.57;;
27313;SDS011;14800;48.174;9.798;2024-03-25T14:25:54;0.70;;;0.60;;
27313;SDS011;14800;48.174;9.798;2024-03-25T14:28:20;0.80;;;0.65;;
27313;SDS011;14800;48.174;9.798;2024-03-25T14:30:45;0.70;;;0.70;;
27313;SDS011;14800;48.174;9.798;2024-03-25T14:33:11;1.13;;;0.73;;
27313;SDS011;14800;48.174;9.798;2024-03-25T14:35:38;2.60;;;0.85;;
27313;SDS011;14800;48.174;9.798;2024-03-25T14:38:04;1.02;;;0.80;;
27313;SDS011;14800;48.174;9.798;2024-03-25T14:40:29;1.02;;;0.75;;
27313;SDS011;14800;48.174;9.798;2024-03-25T14:42:55;1.70;;;1.00;;
27313;SDS011;14800;48.174;9.798;2024-03-25T14:45:20;1.88;;;1.00;;
27313;SDS011;14800;48.174;9.798;2024-03-25T14:47:46;1.33;;;0.80;;
27313;SDS011;14800;48.174;9.798;2024-03-25T14:50:12;1.90;;;1.08;;